sensor_id;sensor_type;location;lat;lon;timestamp;P1;durP1;ratioP1;P2;durP2;ratioP2
43801;SDS011;29429;51.074;13.764;2022-08-01T00:00:43;2.20;;;1.98;;
43801;SDS011;29429;51.074;13.764;2022-08-01T00:03:10;2.00;;;1.48;;
43801;SDS011;29429;51.074;13.764;2022-08-01T00:05:37;2.30;;;1.80;;
43801;SDS011;29429;51.074;13.764;2022-08-01T00:08:04;2.58;;;1.85;;
43801;SDS011;29429;51.074;13.764;2022-08-01T00:10:31;2.42;;;1.73;;
43801;SDS011;29429;51.074;13.764;2022-08-01T00:13:01;2.55;;;1.88;;
43801;SDS011;29429;51.074;13.764;2022-08-01T00:15:28;3.55;;;2.05;;
43801;SDS011;29429;51.074;13.764;2022-08-01T00:17:55;2.70;;;2.38;;
43801;SDS011;29429;51.074;13.764;2022-08-01T00:20:22;2.60;;;2.20;;
43801;SDS011;29429;51.074;13.764;2022-08-01T00:22:49;3.30;;;2.17;;
43801;SDS011;29429;51.074;13.764;2022-08-01T00:25:16;3.13;;;2.45;;
43801;SDS011;29429;51.074;13.764;2022-08-01T00:27:42;2.50;;;2.13;;
43801;SDS011;29429;51.074;13.764;2022-08-01T00:30:10;3.28;;;1.85;;
43801;SDS011;29429;51.074;13.764;2022-08-01T00:32:41;2.85;;;2.42;;
43801;SDS011;29429;51.074;13.764;2022-08-01T00:35:09;3.15;;;2.22;;
43801;SDS011;29429;51.074;13.764;2022-08-01T00:37:36;4.25;;;2.45;;
43801;SDS011;29429;51.074;13.764;2022-08-01T00:40:03;3.90;;;2.38;;
43801;SDS011;29429;51.074;13.764;2022-08-01T00:42:32;4.25;;;2.35;;
43801;SDS011;29429;51.074;13.764;2022-08-01T00:44:59;3.50;;;2.47;;
43801;SDS011;29429;51.074;13.764;2022-08-01T00:47:26;2.35;;;2.15;;
43801;SDS011;29429;51.074;13.764;2022-08-01T00:49:53;3.38;;;2.67;;
43801;SDS011;29429;51.074;13.764;2022-08-01T00:52:19;2.80;;;2.20;;
43801;SDS011;29429;51.074;13.764;2022-08-01T00:54:46;4.70;;;2.05;;
43801;SDS011;29429;51.074;13.764;2022-08-01T00:57:14;3.50;;;2.63;;
43801;SDS011;29429;51.074;13.764;2022-08-01T01:00:02;2.58;;;2.30;;
43801;SDS011;29429;51.074;13.764;2022-08-01T01:02:31;4.05;;;2.53;;
43801;SDS011;29429;51.074;13.764;2022-08-01T01:05:00;3.70;;;2.70;;
43801;SDS011;29429;51.074;13.764;2022-08-01T01:07:29;2.58;;;2.35;;
43801;SDS011;29429;51.074;13.764;2022-08-01T01:10:16;3.97;;;2.80;;
43801;SDS011;29429;51.074;13.764;2022-08-01T01:13:09;3.08;;;2.70;;
43801;SDS011;29429;51.074;13.764;2022-08-01T01:15:50;3.47;;;2.75;;
43801;SDS011;29429;51.074;13.764;2022-08-01T01:18:38;3.35;;;2.67;;
43801;SDS011;29429;51.074;13.764;2022-08-01T01:24:04;4.35;;;2.50;;
43801;SDS011;29429;51.074;13.764;2022-08-01T01:30:11;2.65;;;2.42;;
43801;SDS011;29429;51.074;13.764;2022-08-01T01:32:39;3.25;;;2.60;;
43801;SDS011;29429;51.074;13.764;2022-08-01T01:35:27;3.03;;;2.65;;
43801;SDS011;29429;51.074;13.764;2022-08-01T01:38:01;3.65;;;2.60;;
43801;SDS011;29429;51.074;13.764;2022-08-01T01:40:36;3.50;;;2.30;;
43801;SDS011;29429;51.074;13.764;2022-08-01T01:43:06;5.53;;;3.10;;
43801;SDS011;29429;51.074;13.764;2022-08-01T01:45:39;3.45;;;2.20;;
43801;SDS011;29429;51.074;13.764;2022-08-01T01:48:07;4.50;;;2.40;;
43801;SDS011;29429;51.074;13.764;2022-08-01T01:50:40;2.58;;;2.38;;
43801;SDS011;29429;51.074;13.764;2022-08-01T01:53:09;2.88;;;2.17;;
43801;SDS011;29429;51.074;13.764;2022-08-01T01:55:40;4.45;;;2.38;;
43801;SDS011;29429;51.074;13.764;2022-08-01T01:58:15;2.92;;;2.33;;
43801;SDS011;29429;51.074;13.764;2022-08-01T02:00:44;3.28;;;2.78;;
43801;SDS011;29429;51.074;13.764;2022-08-01T02:03:16;4.20;;;2.70;;
43801;SDS011;29429;51.074;13.764;2022-08-01T02:05:46;3.65;;;2.58;;
43801;SDS011;29429;51.074;13.764;2022-08-01T02:08:15;2.90;;;2.60;;
43801;SDS011;29429;51.074;13.764;2022-08-01T02:10:45;2.50;;;2.30;;
43801;SDS011;29429;51.074;13.764;2022-08-01T02:13:33;3.88;;;2.40;;
43801;SDS011;29429;51.074;13.764;2022-08-01T02:16:04;4.10;;;2.60;;
43801;SDS011;29429;51.074;13.764;2022-08-01T02:18:32;3.78;;;2.40;;
43801;SDS011;29429;51.074;13.764;2022-08-01T02:21:00;2.80;;;2.35;;
43801;SDS011;29429;51.074;13.764;2022-08-01T02:23:31;3.78;;;2.97;;
43801;SDS011;29429;51.074;13.764;2022-08-01T02:26:04;2.45;;;2.25;;
43801;SDS011;29429;51.074;13.764;2022-08-01T02:28:47;2.70;;;2.50;;
43801;SDS011;29429;51.074;13.764;2022-08-01T02:31:21;2.70;;;2.20;;
43801;SDS011;29429;51.074;13.764;2022-08-01T02:33:57;2.40;;;2.20;;
43801;SDS011;29429;51.074;13.764;2022-08-01T02:36:31;3.45;;;2.30;;
43801;SDS011;29429;51.074;13.764;2022-08-01T02:39:03;2.50;;;2.28;;
43801;SDS011;29429;51.074;13.764;2022-08-01T02:41:39;3.45;;;2.40;;
43801;SDS011;29429;51.074;13.764;2022-08-01T02:44:09;3.67;;;2.10;;
43801;SDS011;29429;51.074;13.764;2022-08-01T02:46:51;3.80;;;2.30;;
43801;SDS011;29429;51.074;13.764;2022-08-01T02:49:23;4.13;;;2.50;;
43801;SDS011;29429;51.074;13.764;2022-08-01T02:51:53;2.42;;;2.05;;
43801;SDS011;29429;51.074;13.764;2022-08-01T02:54:22;2.40;;;2.20;;
43801;SDS011;29429;51.074;13.764;2022-08-01T02:56:52;2.30;;;2.10;;
43801;SDS011;29429;51.074;13.764;2022-08-01T02:59:23;3.92;;;2.80;;
43801;SDS011;29429;51.074;13.764;2022-08-01T03:01:55;2.35;;;2.15;;
43801;SDS011;29429;51.074;13.764;2022-08-01T03:04:28;3.45;;;2.40;;
43801;SDS011;29429;51.074;13.764;2022-08-01T03:06:58;2.83;;;2.47;;
43801;SDS011;29429;51.074;13.764;2022-08-01T03:09:29;3.92;;;2.38;;
43801;SDS011;29429;51.074;13.764;2022-08-01T03:12:02;2.50;;;2.20;;
43801;SDS011;29429;51.074;13.764;2022-08-01T03:14:36;3.97;;;3.20;;
43801;SDS011;29429;51.074;13.764;2022-08-01T03:17:06;4.88;;;2.42;;
43801;SDS011;29429;51.074;13.764;2022-08-01T03:19:35;3.00;;;2.22;;
43801;SDS011;29429;51.074;13.764;2022-08-01T03:22:06;3.10;;;2.80;;
43801;SDS011;29429;51.074;13.764;2022-08-01T03:24:37;5.28;;;3.45;;
43801;SDS011;29429;51.074;13.764;2022-08-01T03:27:08;3.08;;;2.40;;
43801;SDS011;29429;51.074;13.764;2022-08-01T03:29:38;3.55;;;2.40;;
43801;SDS011;29429;51.074;13.764;2022-08-01T03:32:07;3.88;;;2.88;;
43801;SDS011;29429;51.074;13.764;2022-08-01T03:34:38;3.38;;;2.53;;
43801;SDS011;29429;51.074;13.764;2022-08-01T03:37:06;2.58;;;2.22;;
43801;SDS011;29429;51.074;13.764;2022-08-01T03:39:49;3.28;;;2.20;;
43801;SDS011;29429;51.074;13.764;2022-08-01T03:42:25;2.67;;;2.28;;
43801;SDS011;29429;51.074;13.764;2022-08-01T03:45:10;3.65;;;2.17;;
43801;SDS011;29429;51.074;13.764;2022-08-01T03:47:49;4.75;;;3.15;;
43801;SDS011;29429;51.074;13.764;2022-08-01T03:50:25;2.90;;;2.40;;
43801;SDS011;29429;51.074;13.764;2022-08-01T03:52:54;3.90;;;2.80;;
43801;SDS011;29429;51.074;13.764;2022-08-01T03:55:26;2.65;;;2.40;;
43801;SDS011;29429;51.074;13.764;2022-08-01T03:57:56;4.82;;;2.80;;
43801;SDS011;29429;51.074;13.764;2022-08-01T04:00:26;4.68;;;3.08;;
43801;SDS011;29429;51.074;13.764;2022-08-01T04:02:53;2.70;;;2.50;;
43801;SDS011;29429;51.074;13.764;2022-08-01T04:05:21;2.67;;;2.47;;
43801;SDS011;29429;51.074;13.764;2022-08-01T04:07:49;3.92;;;2.53;;
43801;SDS011;29429;51.074;13.764;2022-08-01T04:10:22;4.38;;;2.65;;
43801;SDS011;29429;51.074;13.764;2022-08-01T04:12:50;3.97;;;2.60;;
43801;SDS011;29429;51.074;13.764;2022-08-01T04:15:18;4.38;;;2.95;;
43801;SDS011;29429;51.074;13.764;2022-08-01T04:17:46;2.97;;;2.55;;
43801;SDS011;29429;51.074;13.764;2022-08-01T04:20:14;3.22;;;2.55;;
43801;SDS011;29429;51.074;13.764;2022-08-01T04:22:41;3.03;;;2.28;;
43801;SDS011;29429;51.074;13.764;2022-08-01T04:25:10;3.10;;;2.55;;
43801;SDS011;29429;51.074;13.764;2022-08-01T04:27:47;3.30;;;2.60;;
43801;SDS011;29429;51.074;13.764;2022-08-01T04:30:20;3.53;;;2.75;;
43801;SDS011;29429;51.074;13.764;2022-08-01T04:32:56;3.17;;;2.67;;
43801;SDS011;29429;51.074;13.764;2022-08-01T04:35:26;4.47;;;2.45;;
43801;SDS011;29429;51.074;13.764;2022-08-01T04:38:15;2.80;;;2.22;;
43801;SDS011;29429;51.074;13.764;2022-08-01T04:40:49;3.25;;;2.40;;
43801;SDS011;29429;51.074;13.764;2022-08-01T04:43:18;4.32;;;2.80;;
43801;SDS011;29429;51.074;13.764;2022-08-01T04:45:46;2.40;;;2.20;;
43801;SDS011;29429;51.074;13.764;2022-08-01T04:48:15;3.15;;;2.60;;
43801;SDS011;29429;51.074;13.764;2022-08-01T04:50:48;6.03;;;2.22;;
43801;SDS011;29429;51.074;13.764;2022-08-01T04:53:19;2.65;;;2.15;;
43801;SDS011;29429;51.074;13.764;2022-08-01T04:55:48;4.93;;;2.70;;
43801;SDS011;29429;51.074;13.764;2022-08-01T04:58:15;3.88;;;2.28;;
43801;SDS011;29429;51.074;13.764;2022-08-01T05:00:44;3.38;;;2.40;;
43801;SDS011;29429;51.074;13.764;2022-08-01T05:03:12;4.50;;;2.55;;
43801;SDS011;29429;51.074;13.764;2022-08-01T05:05:38;2.78;;;2.20;;
43801;SDS011;29429;51.074;13.764;2022-08-01T05:08:05;4.40;;;2.30;;
43801;SDS011;29429;51.074;13.764;2022-08-01T05:10:33;3.05;;;2.65;;
43801;SDS011;29429;51.074;13.764;2022-08-01T05:13:00;4.00;;;2.55;;
43801;SDS011;29429;51.074;13.764;2022-08-01T05:15:27;3.45;;;2.10;;
43801;SDS011;29429;51.074;13.764;2022-08-01T05:17:54;2.92;;;2.40;;
43801;SDS011;29429;51.074;13.764;2022-08-01T05:20:22;2.55;;;2.20;;
43801;SDS011;29429;51.074;13.764;2022-08-01T05:22:49;2.35;;;2.03;;
43801;SDS011;29429;51.074;13.764;2022-08-01T05:25:16;2.55;;;2.35;;
43801;SDS011;29429;51.074;13.764;2022-08-01T05:27:45;2.13;;;1.85;;
43801;SDS011;29429;51.074;13.764;2022-08-01T05:30:17;2.45;;;2.00;;
43801;SDS011;29429;51.074;13.764;2022-08-01T05:32:44;3.38;;;2.55;;
43801;SDS011;29429;51.074;13.764;2022-08-01T05:35:11;4.45;;;2.40;;
43801;SDS011;29429;51.074;13.764;2022-08-01T05:37:38;2.45;;;2.25;;
43801;SDS011;29429;51.074;13.764;2022-08-01T05:40:05;4.97;;;2.03;;
43801;SDS011;29429;51.074;13.764;2022-08-01T05:42:33;3.30;;;1.88;;
43801;SDS011;29429;51.074;13.764;2022-08-01T05:45:00;3.95;;;2.15;;
43801;SDS011;29429;51.074;13.764;2022-08-01T05:47:27;3.95;;;2.05;;
43801;SDS011;29429;51.074;13.764;2022-08-01T05:49:54;3.63;;;1.90;;
43801;SDS011;29429;51.074;13.764;2022-08-01T05:52:21;4.43;;;2.13;;
43801;SDS011;29429;51.074;13.764;2022-08-01T05:54:47;4.72;;;2.40;;
43801;SDS011;29429;51.074;13.764;2022-08-01T05:57:14;3.78;;;2.10;;
43801;SDS011;29429;51.074;13.764;2022-08-01T05:59:42;2.30;;;2.10;;
43801;SDS011;29429;51.074;13.764;2022-08-01T06:02:09;2.30;;;2.10;;
43801;SDS011;29429;51.074;13.764;2022-08-01T06:04:36;2.20;;;1.90;;
43801;SDS011;29429;51.074;13.764;2022-08-01T06:07:03;3.25;;;1.90;;
43801;SDS011;29429;51.074;13.764;2022-08-01T06:09:30;6.25;;;2.00;;
43801;SDS011;29429;51.074;13.764;2022-08-01T06:11:57;2.90;;;2.38;;
43801;SDS011;29429;51.074;13.764;2022-08-01T06:14:24;4.10;;;2.28;;
43801;SDS011;29429;51.074;13.764;2022-08-01T06:16:51;2.97;;;2.08;;
43801;SDS011;29429;51.074;13.764;2022-08-01T06:19:18;4.40;;;2.30;;
43801;SDS011;29429;51.074;13.764;2022-08-01T06:21:45;3.85;;;2.13;;
43801;SDS011;29429;51.074;13.764;2022-08-01T06:24:12;2.03;;;1.77;;
43801;SDS011;29429;51.074;13.764;2022-08-01T06:26:38;2.83;;;2.08;;
43801;SDS011;29429;51.074;13.764;2022-08-01T06:29:05;3.45;;;2.10;;
43801;SDS011;29429;51.074;13.764;2022-08-01T06:31:35;2.30;;;1.80;;
43801;SDS011;29429;51.074;13.764;2022-08-01T06:34:02;4.20;;;2.00;;
43801;SDS011;29429;51.074;13.764;2022-08-01T06:36:28;3.95;;;2.10;;
43801;SDS011;29429;51.074;13.764;2022-08-01T06:38:55;2.55;;;1.73;;
43801;SDS011;29429;51.074;13.764;2022-08-01T06:41:22;2.95;;;1.70;;
43801;SDS011;29429;51.074;13.764;2022-08-01T06:43:49;6.93;;;2.72;;
43801;SDS011;29429;51.074;13.764;2022-08-01T06:46:16;2.85;;;1.70;;
43801;SDS011;29429;51.074;13.764;2022-08-01T06:48:43;2.55;;;1.88;;
43801;SDS011;29429;51.074;13.764;2022-08-01T06:51:10;2.05;;;1.45;;
43801;SDS011;29429;51.074;13.764;2022-08-01T06:53:44;1.80;;;1.70;;
43801;SDS011;29429;51.074;13.764;2022-08-01T06:56:11;1.92;;;1.80;;
43801;SDS011;29429;51.074;13.764;2022-08-01T06:58:38;4.95;;;1.70;;
43801;SDS011;29429;51.074;13.764;2022-08-01T07:01:05;3.42;;;2.30;;
43801;SDS011;29429;51.074;13.764;2022-08-01T07:03:34;2.97;;;1.98;;
43801;SDS011;29429;51.074;13.764;2022-08-01T07:06:21;2.83;;;2.63;;
43801;SDS011;29429;51.074;13.764;2022-08-01T07:08:50;3.58;;;2.05;;
43801;SDS011;29429;51.074;13.764;2022-08-01T07:11:21;3.40;;;2.72;;
43801;SDS011;29429;51.074;13.764;2022-08-01T07:13:49;4.30;;;3.45;;
43801;SDS011;29429;51.074;13.764;2022-08-01T07:16:16;4.15;;;2.65;;
43801;SDS011;29429;51.074;13.764;2022-08-01T07:18:44;4.53;;;3.25;;
43801;SDS011;29429;51.074;13.764;2022-08-01T07:21:11;4.25;;;3.08;;
43801;SDS011;29429;51.074;13.764;2022-08-01T07:23:58;3.28;;;2.97;;
43801;SDS011;29429;51.074;13.764;2022-08-01T07:26:25;3.58;;;2.80;;
43801;SDS011;29429;51.074;13.764;2022-08-01T07:28:53;4.90;;;2.70;;
43801;SDS011;29429;51.074;13.764;2022-08-01T07:31:20;4.07;;;3.20;;
43801;SDS011;29429;51.074;13.764;2022-08-01T07:33:47;3.30;;;3.00;;
43801;SDS011;29429;51.074;13.764;2022-08-01T07:36:18;4.03;;;2.70;;
43801;SDS011;29429;51.074;13.764;2022-08-01T07:38:45;3.25;;;2.92;;
43801;SDS011;29429;51.074;13.764;2022-08-01T07:41:13;3.25;;;2.95;;
43801;SDS011;29429;51.074;13.764;2022-08-01T07:43:41;4.22;;;2.70;;
43801;SDS011;29429;51.074;13.764;2022-08-01T07:46:18;5.53;;;2.75;;
43801;SDS011;29429;51.074;13.764;2022-08-01T07:48:45;3.00;;;2.70;;
43801;SDS011;29429;51.074;13.764;2022-08-01T07:51:12;3.88;;;2.63;;
43801;SDS011;29429;51.074;13.764;2022-08-01T07:53:39;3.45;;;2.65;;
43801;SDS011;29429;51.074;13.764;2022-08-01T07:56:06;3.42;;;2.80;;
43801;SDS011;29429;51.074;13.764;2022-08-01T07:58:33;3.08;;;2.67;;
43801;SDS011;29429;51.074;13.764;2022-08-01T08:01:00;4.18;;;2.88;;
43801;SDS011;29429;51.074;13.764;2022-08-01T08:03:27;3.10;;;2.38;;
43801;SDS011;29429;51.074;13.764;2022-08-01T08:05:54;2.88;;;2.53;;
43801;SDS011;29429;51.074;13.764;2022-08-01T08:08:25;2.70;;;2.50;;
43801;SDS011;29429;51.074;13.764;2022-08-01T08:10:53;2.85;;;2.40;;
43801;SDS011;29429;51.074;13.764;2022-08-01T08:13:20;2.85;;;2.60;;
43801;SDS011;29429;51.074;13.764;2022-08-01T08:15:47;4.13;;;2.60;;
43801;SDS011;29429;51.074;13.764;2022-08-01T08:18:14;5.13;;;2.33;;
43801;SDS011;29429;51.074;13.764;2022-08-01T08:20:42;2.95;;;2.05;;
43801;SDS011;29429;51.074;13.764;2022-08-01T08:23:10;2.72;;;1.90;;
43801;SDS011;29429;51.074;13.764;2022-08-01T08:26:09;2.38;;;2.00;;
43801;SDS011;29429;51.074;13.764;2022-08-01T08:28:38;2.40;;;1.90;;
43801;SDS011;29429;51.074;13.764;2022-08-01T08:31:06;2.22;;;2.00;;
43801;SDS011;29429;51.074;13.764;2022-08-01T08:33:54;2.15;;;1.52;;
43801;SDS011;29429;51.074;13.764;2022-08-01T08:36:21;2.25;;;1.67;;
43801;SDS011;29429;51.074;13.764;2022-08-01T08:38:57;5.90;;;1.50;;
43801;SDS011;29429;51.074;13.764;2022-08-01T08:41:34;1.95;;;1.45;;
43801;SDS011;29429;51.074;13.764;2022-08-01T08:44:04;1.50;;;1.40;;
43801;SDS011;29429;51.074;13.764;2022-08-01T08:46:42;3.20;;;1.45;;
43801;SDS011;29429;51.074;13.764;2022-08-01T08:49:16;3.47;;;1.40;;
43801;SDS011;29429;51.074;13.764;2022-08-01T08:51:47;1.38;;;1.23;;
43801;SDS011;29429;51.074;13.764;2022-08-01T08:54:17;3.17;;;1.50;;
43801;SDS011;29429;51.074;13.764;2022-08-01T08:56:56;3.42;;;1.60;;
43801;SDS011;29429;51.074;13.764;2022-08-01T08:59:25;1.77;;;1.40;;
43801;SDS011;29429;51.074;13.764;2022-08-01T09:01:55;2.08;;;1.55;;
43801;SDS011;29429;51.074;13.764;2022-08-01T09:04:24;2.17;;;1.33;;
43801;SDS011;29429;51.074;13.764;2022-08-01T09:06:53;3.50;;;2.13;;
43801;SDS011;29429;51.074;13.764;2022-08-01T09:09:21;1.17;;;1.05;;
43801;SDS011;29429;51.074;13.764;2022-08-01T09:11:49;2.38;;;1.00;;
43801;SDS011;29429;51.074;13.764;2022-08-01T09:14:23;3.92;;;1.23;;
43801;SDS011;29429;51.074;13.764;2022-08-01T09:19:39;1.50;;;1.00;;
43801;SDS011;29429;51.074;13.764;2022-08-01T09:22:10;2.30;;;1.00;;
43801;SDS011;29429;51.074;13.764;2022-08-01T09:27:43;1.88;;;1.00;;
43801;SDS011;29429;51.074;13.764;2022-08-01T09:30:13;1.77;;;1.00;;
43801;SDS011;29429;51.074;13.764;2022-08-01T09:32:52;1.75;;;1.10;;
43801;SDS011;29429;51.074;13.764;2022-08-01T09:35:25;2.67;;;1.20;;
43801;SDS011;29429;51.074;13.764;2022-08-01T09:38:17;2.05;;;1.23;;
43801;SDS011;29429;51.074;13.764;2022-08-01T09:40:56;4.07;;;1.35;;
43801;SDS011;29429;51.074;13.764;2022-08-01T09:43:28;2.03;;;1.27;;
43801;SDS011;29429;51.074;13.764;2022-08-01T09:45:57;1.30;;;1.15;;
43801;SDS011;29429;51.074;13.764;2022-08-01T09:48:30;1.67;;;1.27;;
43801;SDS011;29429;51.074;13.764;2022-08-01T09:50:58;1.48;;;1.38;;
43801;SDS011;29429;51.074;13.764;2022-08-01T09:53:42;3.15;;;1.20;;
43801;SDS011;29429;51.074;13.764;2022-08-01T09:56:19;1.20;;;1.10;;
43801;SDS011;29429;51.074;13.764;2022-08-01T09:58:49;1.02;;;0.98;;
43801;SDS011;29429;51.074;13.764;2022-08-01T10:01:26;1.70;;;1.00;;
43801;SDS011;29429;51.074;13.764;2022-08-01T10:04:10;1.00;;;0.90;;
43801;SDS011;29429;51.074;13.764;2022-08-01T10:06:41;0.90;;;0.90;;
43801;SDS011;29429;51.074;13.764;2022-08-01T10:09:11;1.55;;;1.10;;
43801;SDS011;29429;51.074;13.764;2022-08-01T10:11:43;0.85;;;0.75;;
43801;SDS011;29429;51.074;13.764;2022-08-01T10:14:10;0.80;;;0.80;;
43801;SDS011;29429;51.074;13.764;2022-08-01T10:16:43;0.75;;;0.75;;
43801;SDS011;29429;51.074;13.764;2022-08-01T10:19:20;1.10;;;0.90;;
43801;SDS011;29429;51.074;13.764;2022-08-01T10:21:55;1.02;;;0.80;;
43801;SDS011;29429;51.074;13.764;2022-08-01T10:24:26;0.98;;;0.77;;
43801;SDS011;29429;51.074;13.764;2022-08-01T10:27:02;1.77;;;0.87;;
43801;SDS011;29429;51.074;13.764;2022-08-01T10:29:35;1.25;;;0.70;;
43801;SDS011;29429;51.074;13.764;2022-08-01T10:32:32;0.68;;;0.68;;
43801;SDS011;29429;51.074;13.764;2022-08-01T10:35:01;1.20;;;0.60;;
43801;SDS011;29429;51.074;13.764;2022-08-01T10:37:35;0.68;;;0.55;;
43801;SDS011;29429;51.074;13.764;2022-08-01T10:40:18;1.05;;;0.88;;
43801;SDS011;29429;51.074;13.764;2022-08-01T10:42:56;0.52;;;0.52;;
43801;SDS011;29429;51.074;13.764;2022-08-01T10:45:24;0.50;;;0.50;;
43801;SDS011;29429;51.074;13.764;2022-08-01T10:51:04;1.77;;;0.60;;
43801;SDS011;29429;51.074;13.764;2022-08-01T10:53:48;0.93;;;0.50;;
43801;SDS011;29429;51.074;13.764;2022-08-01T10:56:23;0.70;;;0.60;;
43801;SDS011;29429;51.074;13.764;2022-08-01T10:59:00;0.47;;;0.45;;
43801;SDS011;29429;51.074;13.764;2022-08-01T11:01:36;0.60;;;0.50;;
43801;SDS011;29429;51.074;13.764;2022-08-01T11:04:13;0.40;;;0.40;;
43801;SDS011;29429;51.074;13.764;2022-08-01T11:06:46;0.30;;;0.30;;
43801;SDS011;29429;51.074;13.764;2022-08-01T11:12:17;1.23;;;0.38;;
43801;SDS011;29429;51.074;13.764;2022-08-01T11:20:09;0.40;;;0.35;;
43801;SDS011;29429;51.074;13.764;2022-08-01T11:28:22;1.92;;;0.35;;
43801;SDS011;29429;51.074;13.764;2022-08-01T11:41:39;0.30;;;0.30;;
43801;SDS011;29429;51.074;13.764;2022-08-01T11:44:11;1.85;;;0.43;;
43801;SDS011;29429;51.074;13.764;2022-08-01T11:46:54;4.75;;;0.60;;
43801;SDS011;29429;51.074;13.764;2022-08-01T11:57:38;2.70;;;0.45;;
43801;SDS011;29429;51.074;13.764;2022-08-01T12:02:42;2.78;;;0.70;;
43801;SDS011;29429;51.074;13.764;2022-08-01T12:05:12;0.60;;;0.60;;
43801;SDS011;29429;51.074;13.764;2022-08-01T12:07:43;2.60;;;0.50;;
43801;SDS011;29429;51.074;13.764;2022-08-01T12:10:16;2.83;;;0.70;;
43801;SDS011;29429;51.074;13.764;2022-08-01T12:12:47;3.15;;;0.60;;
43801;SDS011;29429;51.074;13.764;2022-08-01T12:15:18;1.67;;;0.50;;
43801;SDS011;29429;51.074;13.764;2022-08-01T12:17:50;1.52;;;0.50;;
43801;SDS011;29429;51.074;13.764;2022-08-01T12:20:26;3.58;;;0.47;;
43801;SDS011;29429;51.074;13.764;2022-08-01T12:22:58;2.20;;;0.50;;
43801;SDS011;29429;51.074;13.764;2022-08-01T12:25:36;1.13;;;0.57;;
43801;SDS011;29429;51.074;13.764;2022-08-01T12:28:09;4.53;;;0.70;;
43801;SDS011;29429;51.074;13.764;2022-08-01T12:30:40;0.43;;;0.40;;
43801;SDS011;29429;51.074;13.764;2022-08-01T12:33:08;0.55;;;0.52;;
43801;SDS011;29429;51.074;13.764;2022-08-01T12:35:37;0.68;;;0.60;;
43801;SDS011;29429;51.074;13.764;2022-08-01T12:38:13;0.95;;;0.55;;
43801;SDS011;29429;51.074;13.764;2022-08-01T12:40:43;3.80;;;0.60;;
43801;SDS011;29429;51.074;13.764;2022-08-01T12:43:19;1.08;;;0.50;;
43801;SDS011;29429;51.074;13.764;2022-08-01T12:45:54;1.65;;;0.63;;
43801;SDS011;29429;51.074;13.764;2022-08-01T12:48:27;1.25;;;0.50;;
43801;SDS011;29429;51.074;13.764;2022-08-01T12:50:57;0.57;;;0.40;;
43801;SDS011;29429;51.074;13.764;2022-08-01T12:53:27;0.93;;;0.50;;
43801;SDS011;29429;51.074;13.764;2022-08-01T12:56:07;2.25;;;0.60;;
43801;SDS011;29429;51.074;13.764;2022-08-01T12:58:36;0.65;;;0.65;;
43801;SDS011;29429;51.074;13.764;2022-08-01T13:01:07;0.98;;;0.70;;
43801;SDS011;29429;51.074;13.764;2022-08-01T13:03:37;1.33;;;0.50;;
43801;SDS011;29429;51.074;13.764;2022-08-01T13:06:11;1.70;;;0.50;;
43801;SDS011;29429;51.074;13.764;2022-08-01T13:08:42;1.50;;;0.47;;
43801;SDS011;29429;51.074;13.764;2022-08-01T13:11:10;1.35;;;0.50;;
43801;SDS011;29429;51.074;13.764;2022-08-01T13:13:44;2.00;;;0.60;;
43801;SDS011;29429;51.074;13.764;2022-08-01T13:16:18;0.50;;;0.50;;
43801;SDS011;29429;51.074;13.764;2022-08-01T13:19:11;3.60;;;0.50;;
43801;SDS011;29429;51.074;13.764;2022-08-01T13:21:39;6.28;;;0.82;;
43801;SDS011;29429;51.074;13.764;2022-08-01T13:26:58;0.60;;;0.40;;
43801;SDS011;29429;51.074;13.764;2022-08-01T13:29:36;0.43;;;0.40;;
43801;SDS011;29429;51.074;13.764;2022-08-01T13:32:12;1.23;;;0.40;;
43801;SDS011;29429;51.074;13.764;2022-08-01T13:35:08;1.48;;;0.50;;
43801;SDS011;29429;51.074;13.764;2022-08-01T13:37:41;2.35;;;0.43;;
43801;SDS011;29429;51.074;13.764;2022-08-01T13:40:09;0.30;;;0.30;;
43801;SDS011;29429;51.074;13.764;2022-08-01T13:42:37;3.70;;;0.45;;
43801;SDS011;29429;51.074;13.764;2022-08-01T13:45:05;0.60;;;0.60;;
43801;SDS011;29429;51.074;13.764;2022-08-01T13:47:40;2.65;;;0.55;;
43801;SDS011;29429;51.074;13.764;2022-08-01T13:50:31;2.38;;;0.60;;
43801;SDS011;29429;51.074;13.764;2022-08-01T13:52:58;1.23;;;0.25;;
43801;SDS011;29429;51.074;13.764;2022-08-01T13:55:25;1.08;;;0.40;;
43801;SDS011;29429;51.074;13.764;2022-08-01T13:57:59;0.55;;;0.45;;
43801;SDS011;29429;51.074;13.764;2022-08-01T14:00:26;1.15;;;0.43;;
43801;SDS011;29429;51.074;13.764;2022-08-01T14:02:53;1.70;;;0.57;;
43801;SDS011;29429;51.074;13.764;2022-08-01T14:05:20;2.60;;;0.40;;
43801;SDS011;29429;51.074;13.764;2022-08-01T14:07:47;0.70;;;0.60;;
43801;SDS011;29429;51.074;13.764;2022-08-01T14:10:14;1.25;;;0.68;;
43801;SDS011;29429;51.074;13.764;2022-08-01T14:12:46;0.90;;;0.60;;
43801;SDS011;29429;51.074;13.764;2022-08-01T14:15:14;4.28;;;0.60;;
43801;SDS011;29429;51.074;13.764;2022-08-01T14:18:02;0.60;;;0.40;;
43801;SDS011;29429;51.074;13.764;2022-08-01T14:20:31;1.33;;;0.70;;
43801;SDS011;29429;51.074;13.764;2022-08-01T14:22:59;2.53;;;0.60;;
43801;SDS011;29429;51.074;13.764;2022-08-01T14:25:27;1.45;;;0.60;;
43801;SDS011;29429;51.074;13.764;2022-08-01T14:28:14;3.40;;;0.80;;
43801;SDS011;29429;51.074;13.764;2022-08-01T14:30:41;1.35;;;0.52;;
43801;SDS011;29429;51.074;13.764;2022-08-01T14:33:11;0.77;;;0.68;;
43801;SDS011;29429;51.074;13.764;2022-08-01T14:35:40;0.60;;;0.50;;
43801;SDS011;29429;51.074;13.764;2022-08-01T14:38:28;2.28;;;0.70;;
43801;SDS011;29429;51.074;13.764;2022-08-01T14:40:57;1.10;;;0.70;;
43801;SDS011;29429;51.074;13.764;2022-08-01T14:43:25;0.80;;;0.60;;
43801;SDS011;29429;51.074;13.764;2022-08-01T14:45:58;2.10;;;0.70;;
43801;SDS011;29429;51.074;13.764;2022-08-01T14:48:27;1.02;;;0.70;;
43801;SDS011;29429;51.074;13.764;2022-08-01T14:50:55;1.58;;;0.68;;
43801;SDS011;29429;51.074;13.764;2022-08-01T14:53:25;0.60;;;0.55;;
43801;SDS011;29429;51.074;13.764;2022-08-01T14:55:51;0.98;;;0.60;;
43801;SDS011;29429;51.074;13.764;2022-08-01T14:58:18;0.50;;;0.50;;
43801;SDS011;29429;51.074;13.764;2022-08-01T15:00:45;0.82;;;0.60;;
43801;SDS011;29429;51.074;13.764;2022-08-01T15:03:13;0.65;;;0.50;;
43801;SDS011;29429;51.074;13.764;2022-08-01T15:05:40;0.43;;;0.43;;
43801;SDS011;29429;51.074;13.764;2022-08-01T15:08:07;1.00;;;0.50;;
43801;SDS011;29429;51.074;13.764;2022-08-01T15:10:34;5.35;;;0.82;;
43801;SDS011;29429;51.074;13.764;2022-08-01T15:13:01;0.60;;;0.40;;
43801;SDS011;29429;51.074;13.764;2022-08-01T15:15:28;0.57;;;0.50;;
43801;SDS011;29429;51.074;13.764;2022-08-01T15:17:56;0.57;;;0.52;;
43801;SDS011;29429;51.074;13.764;2022-08-01T15:20:23;1.60;;;0.57;;
43801;SDS011;29429;51.074;13.764;2022-08-01T15:22:52;1.33;;;0.47;;
43801;SDS011;29429;51.074;13.764;2022-08-01T15:25:20;0.68;;;0.50;;
43801;SDS011;29429;51.074;13.764;2022-08-01T15:27:47;0.50;;;0.50;;
43801;SDS011;29429;51.074;13.764;2022-08-01T15:30:14;0.75;;;0.60;;
43801;SDS011;29429;51.074;13.764;2022-08-01T15:32:41;0.50;;;0.50;;
43801;SDS011;29429;51.074;13.764;2022-08-01T15:35:08;0.50;;;0.50;;
43801;SDS011;29429;51.074;13.764;2022-08-01T15:37:36;1.10;;;0.43;;
43801;SDS011;29429;51.074;13.764;2022-08-01T15:40:08;1.13;;;0.88;;
43801;SDS011;29429;51.074;13.764;2022-08-01T15:42:37;0.80;;;0.50;;
43801;SDS011;29429;51.074;13.764;2022-08-01T15:45:05;0.65;;;0.60;;
43801;SDS011;29429;51.074;13.764;2022-08-01T15:47:38;3.08;;;0.60;;
43801;SDS011;29429;51.074;13.764;2022-08-01T15:50:05;0.85;;;0.55;;